createdAt,value
2022-11-27T00:00:11.908Z,7.800
2022-11-27T00:01:11.471Z,6
2022-11-27T00:02:11.794Z,10
2022-11-27T00:03:12.097Z,7.300
2022-11-27T00:04:11.473Z,7.400
2022-11-27T00:05:11.625Z,8.800
2022-11-27T00:06:11.564Z,7.099
2022-11-27T00:07:11.965Z,8.300
2022-11-27T00:08:11.329Z,9.100
2022-11-27T00:10:12.729Z,7.199
2022-11-27T00:11:11.691Z,6.400
2022-11-27T00:12:11.802Z,6.5
2022-11-27T00:13:11.768Z,9.600
2022-11-27T00:14:11.946Z,7.199
2022-11-27T00:15:16.976Z,7.5
2022-11-27T00:16:11.266Z,8.100
2022-11-27T00:17:12.130Z,7.599
2022-11-27T00:18:12.309Z,8.699
2022-11-27T00:19:11.418Z,8.399
2022-11-27T00:20:11.888Z,7.599
2022-11-27T00:21:12.044Z,9.699
2022-11-27T00:22:12.334Z,7.599
2022-11-27T00:23:11.590Z,9.399
2022-11-27T00:24:11.800Z,9.600
2022-11-27T00:25:12.090Z,9.5
2022-11-27T00:26:12.251Z,10.80
2022-11-27T00:27:12.322Z,9.199
2022-11-27T00:28:11.640Z,11.60
2022-11-27T00:29:11.930Z,8
2022-11-27T00:30:12.464Z,8.399
2022-11-27T00:31:11.819Z,10.5
2022-11-27T00:32:11.817Z,10
2022-11-27T00:33:12.005Z,8.300
2022-11-27T00:34:11.357Z,9.300
2022-11-27T00:35:12.007Z,7.5
2022-11-27T00:36:12.272Z,9.800
2022-11-27T00:37:12.450Z,9.5
2022-11-27T00:38:12.368Z,9.800
2022-11-27T00:39:12.017Z,9.699
2022-11-27T00:40:11.756Z,8.600
2022-11-27T00:41:11.954Z,9.800
2022-11-27T00:42:12.151Z,9
2022-11-27T00:43:11.259Z,9.300
2022-11-27T00:44:11.439Z,7.5
2022-11-27T00:45:12.082Z,8.699
2022-11-27T00:46:11.313Z,8.5
2022-11-27T00:47:12.144Z,7.599
2022-11-27T00:48:11.670Z,9.699
2022-11-27T00:49:12.366Z,7.199
2022-11-27T00:50:12.055Z,8.199
2022-11-27T00:51:12.657Z,8.399
2022-11-27T00:52:17.264Z,6.400
2022-11-27T00:53:11.683Z,9.600
2022-11-27T00:54:17.069Z,7.900
2022-11-27T00:55:12.688Z,8.100
2022-11-27T00:56:12.484Z,7.099
2022-11-27T00:57:11.990Z,8.300
2022-11-27T00:58:11.751Z,7.5
2022-11-27T00:59:12.668Z,8.699
2022-11-27T01:00:13.769Z,8.300
2022-11-27T01:01:13.825Z,10.39
2022-11-27T01:02:12.275Z,10.80
2022-11-27T01:03:12.007Z,7.800
2022-11-27T01:04:11.652Z,11
2022-11-27T01:05:12.173Z,14.19
2022-11-27T01:06:11.571Z,11.39
2022-11-27T01:07:12.047Z,9.600
2022-11-27T01:08:11.746Z,13
2022-11-27T01:09:12.081Z,9.600
2022-11-27T01:10:11.895Z,12.30
2022-11-27T01:11:11.602Z,14.39
2022-11-27T01:12:26.316Z,8.899
2022-11-27T01:13:11.792Z,11
2022-11-27T01:14:11.426Z,9.800
2022-11-27T01:15:12.343Z,10.10
2022-11-27T01:16:12.524Z,11.69
2022-11-27T01:17:12.362Z,12.39
2022-11-27T01:18:11.383Z,12.89
2022-11-27T01:19:11.591Z,14.89
2022-11-27T01:20:12.662Z,12.10
2022-11-27T01:21:11.268Z,9.600
2022-11-27T01:22:11.492Z,11.60
2022-11-27T01:23:12.058Z,11.10
2022-11-27T01:24:11.488Z,12.39
2022-11-27T01:25:11.850Z,12.10
2022-11-27T01:26:11.068Z,11.19
2022-11-27T01:27:12.154Z,10.89
2022-11-27T01:28:11.222Z,9.5
2022-11-27T01:29:12.439Z,10.10
2022-11-27T01:30:12.045Z,12.60
2022-11-27T01:31:11.244Z,13.5
2022-11-27T01:32:11.666Z,8.699
2022-11-27T01:33:11.683Z,10.10
2022-11-27T01:34:12.114Z,8.5
2022-11-27T01:35:12.284Z,10.80
2022-11-27T01:36:11.462Z,10.30
2022-11-27T01:37:12.018Z,16
2022-11-27T01:38:11.103Z,9
2022-11-27T01:39:12.012Z,11.39
2022-11-27T01:40:11.798Z,12.69
2022-11-27T01:41:11.733Z,10.60
2022-11-27T01:42:12.119Z,12.5
2022-11-27T01:43:11.173Z,9.600
2022-11-27T01:44:11.530Z,12.30
2022-11-27T01:45:11.605Z,11.89
2022-11-27T01:46:12.019Z,10.39
2022-11-27T01:47:12.139Z,9.199
2022-11-27T01:48:11.314Z,11.60
2022-11-27T01:49:12.266Z,11
2022-11-27T01:50:11.663Z,10
2022-11-27T01:51:11.618Z,12.5
2022-11-27T01:52:11.731Z,13.80
2022-11-27T01:53:12.079Z,10.60
2022-11-27T01:54:12.160Z,10.10
2022-11-27T01:55:11.507Z,9.699
2022-11-27T01:56:11.801Z,9.300
2022-11-27T01:57:11.797Z,8.399
2022-11-27T01:58:12.123Z,8.300
2022-11-27T01:59:12.323Z,10.30
2022-11-27T02:00:12.397Z,12.39
2022-11-27T02:01:12.136Z,10.39
2022-11-27T02:02:11.524Z,9.5
2022-11-27T02:03:12.294Z,11.10
2022-11-27T02:04:11.583Z,9.199
2022-11-27T02:05:12.086Z,9.800
2022-11-27T02:06:11.344Z,7.699
2022-11-27T02:07:12.251Z,11
2022-11-27T02:08:11.538Z,10.10
2022-11-27T02:09:11.552Z,8
2022-11-27T02:10:11.607Z,9
2022-11-27T02:11:11.550Z,9.100
2022-11-27T02:12:11.765Z,8.100
2022-11-27T02:13:11.982Z,9.800
2022-11-27T02:14:12.167Z,9.600
2022-11-27T02:15:11.795Z,10.30
2022-11-27T02:16:16.434Z,8.800
2022-11-27T02:17:12.121Z,8.399
2022-11-27T02:18:11.269Z,13.10
2022-11-27T02:19:12.048Z,10.60
2022-11-27T02:20:12.351Z,11.30
2022-11-27T02:21:12.056Z,11.19
2022-11-27T02:22:11.386Z,10.5
2022-11-27T02:23:11.092Z,10.39
2022-11-27T02:24:12.189Z,10.89
2022-11-27T02:25:11.320Z,11.19
2022-11-27T02:26:11.742Z,10.19
2022-11-27T02:27:11.767Z,11.89
2022-11-27T02:28:11.817Z,10.39
2022-11-27T02:29:12.029Z,9.899
2022-11-27T02:30:12.509Z,9.5
2022-11-27T02:31:11.931Z,9.399
2022-11-27T02:32:11.226Z,12.80
2022-11-27T02:33:12.195Z,10.39
2022-11-27T02:34:11.310Z,11
2022-11-27T02:35:12.493Z,8.100
2022-11-27T02:36:11.632Z,9.800
2022-11-27T02:37:11.541Z,9.600
2022-11-27T02:38:11.510Z,9.5
2022-11-27T02:39:11.019Z,8.600
2022-11-27T02:40:12.228Z,9.100
2022-11-27T02:41:11.191Z,7.599
2022-11-27T02:42:11.650Z,8.399
2022-11-27T02:43:11.513Z,7.400
2022-11-27T02:44:11.489Z,8.300
2022-11-27T02:46:11.772Z,9.800
2022-11-27T02:47:11.821Z,8.199
2022-11-27T02:48:12.072Z,9.699
2022-11-27T02:49:11.565Z,9.800
2022-11-27T02:50:11.763Z,10.60
2022-11-27T02:51:11.910Z,8.300
2022-11-27T02:52:12.164Z,7.5
2022-11-27T02:53:12.046Z,9.300
2022-11-27T02:54:12.039Z,11.60
2022-11-27T02:55:12.050Z,11.19
2022-11-27T02:56:12.143Z,8.199
2022-11-27T02:57:12.061Z,10.5
2022-11-27T02:58:12.172Z,8.800
2022-11-27T02:59:12.229Z,10.39
2022-11-27T03:00:11.735Z,8.800
2022-11-27T03:01:12.232Z,9
2022-11-27T03:02:11.662Z,8.300
2022-11-27T03:03:11.698Z,9.5
2022-11-27T03:04:12.018Z,9.399
2022-11-27T03:05:12.170Z,10.10
2022-11-27T03:06:12.348Z,8.600
2022-11-27T03:07:11.407Z,8.899
2022-11-27T03:09:11.442Z,8.100
2022-11-27T03:10:12.614Z,8.5
2022-11-27T03:11:11.847Z,8.399
2022-11-27T03:12:11.739Z,10.19
2022-11-27T03:13:11.358Z,8.399
2022-11-27T03:14:11.166Z,10.5
2022-11-27T03:15:12.516Z,9.600
2022-11-27T03:16:11.740Z,9.100
2022-11-27T03:17:11.763Z,8.600
2022-11-27T03:18:11.776Z,7.900
2022-11-27T03:19:11.771Z,8.199
2022-11-27T03:20:11.719Z,8.600
2022-11-27T03:21:11.565Z,8
2022-11-27T03:22:11.598Z,9.100
2022-11-27T03:23:11.643Z,8.300
2022-11-27T03:24:11.704Z,7.400
2022-11-27T03:25:11.810Z,9.699
2022-11-27T03:26:11.664Z,8.899
2022-11-27T03:27:19.772Z,8.600
2022-11-27T03:28:11.772Z,7.199
2022-11-27T03:29:11.734Z,8.199
2022-11-27T03:30:12.400Z,8.699
2022-11-27T03:31:11.554Z,9.300
2022-11-27T03:32:11.653Z,8.399
2022-11-27T03:33:11.658Z,10
2022-11-27T03:34:11.684Z,9.600
2022-11-27T03:35:11.569Z,8.399
2022-11-27T03:36:11.731Z,8.899
2022-11-27T03:37:11.998Z,7.5
2022-11-27T03:38:11.935Z,7.599
2022-11-27T03:39:12.002Z,8.100
2022-11-27T03:40:12.458Z,9.199
2022-11-27T03:41:12.101Z,9.300
2022-11-27T03:42:12.202Z,8.899
2022-11-27T03:43:12.349Z,8.600
2022-11-27T03:44:11.419Z,7.699
2022-11-27T03:45:11.695Z,8.5
2022-11-27T03:46:12.018Z,9.300
2022-11-27T03:48:11.458Z,11.10
2022-11-27T03:49:11.421Z,8.800
2022-11-27T03:50:11.168Z,11.10
2022-11-27T03:51:12.046Z,9.5
2022-11-27T03:52:12.017Z,8.300
2022-11-27T03:53:11.924Z,9.100
2022-11-27T03:54:11.714Z,9.399
2022-11-27T03:55:11.684Z,7.900
2022-11-27T03:56:11.762Z,9.399
2022-11-27T03:58:11.477Z,7.900
2022-11-27T03:59:12.204Z,8.600
2022-11-27T04:00:11.889Z,9.100
2022-11-27T04:01:31.431Z,9.800
2022-11-27T04:02:11.585Z,8.600
2022-11-27T04:03:11.702Z,9.699
2022-11-27T04:04:11.998Z,11.10
2022-11-27T04:05:12.569Z,10.10
2022-11-27T04:06:11.935Z,9.399
2022-11-27T04:07:12.005Z,7.699
2022-11-27T04:08:12.244Z,8.399
2022-11-27T04:09:11.346Z,8.699
2022-11-27T04:10:11.699Z,7.199
2022-11-27T04:11:11.687Z,9.199
2022-11-27T04:12:11.636Z,7.599
2022-11-27T04:13:11.397Z,7.800
2022-11-27T04:14:11.519Z,7.699
2022-11-27T04:15:11.658Z,7.900
2022-11-27T04:16:11.523Z,10
2022-11-27T04:17:11.454Z,8.600
2022-11-27T04:18:11.559Z,6.900
2022-11-27T04:19:11.501Z,11.19
2022-11-27T04:20:12.021Z,8.899
2022-11-27T04:21:11.808Z,9.300
2022-11-27T04:22:11.940Z,7.300
2022-11-27T04:23:11.984Z,8.600
2022-11-27T04:24:12.093Z,7.800
2022-11-27T04:25:12.307Z,8
2022-11-27T04:26:11.447Z,8.300
2022-11-27T04:27:11.603Z,8.800
2022-11-27T04:28:11.669Z,8.899
2022-11-27T04:29:11.452Z,7.800
2022-11-27T04:30:11.812Z,8.899
2022-11-27T04:31:11.966Z,8.399
2022-11-27T04:32:12.256Z,8.800
2022-11-27T04:33:12.158Z,8.199
2022-11-27T04:35:11.455Z,7.800
2022-11-27T04:36:11.561Z,8.800
2022-11-27T04:37:11.548Z,7.300
2022-11-27T04:38:12.023Z,9.600
2022-11-27T04:39:12.119Z,9.100
2022-11-27T04:40:12.391Z,10.30
2022-11-27T04:41:11.043Z,7.599
2022-11-27T04:42:12.153Z,10.69
2022-11-27T04:43:11.738Z,9
2022-11-27T04:44:11.912Z,7.900
2022-11-27T04:45:11.764Z,8.100
2022-11-27T04:47:11.613Z,7.800
2022-11-27T04:48:11.763Z,7.099
2022-11-27T04:49:11.474Z,9
2022-11-27T04:50:11.956Z,6.900
2022-11-27T04:51:11.802Z,10.30
2022-11-27T04:52:11.697Z,8.800
2022-11-27T04:53:11.666Z,7.699
2022-11-27T04:54:11.873Z,8.199
2022-11-27T04:55:12.207Z,9.100
2022-11-27T04:56:11.932Z,8.300
2022-11-27T04:57:12.156Z,8.800
2022-11-27T04:58:11.258Z,8.5
2022-11-27T04:59:11.356Z,8.100
2022-11-27T05:00:11.938Z,8.399
2022-11-27T05:01:12.194Z,9.800
2022-11-27T05:02:11.496Z,9.300
2022-11-27T05:03:10.359Z,10
2022-11-27T05:04:11.746Z,8.699
2022-11-27T05:05:12.079Z,8.600
2022-11-27T05:06:11.789Z,7.199
2022-11-27T05:07:11.940Z,9.699
2022-11-27T05:08:11.385Z,7.5
2022-11-27T05:09:12.411Z,8.199
2022-11-27T05:10:11.875Z,8.399
2022-11-27T05:11:11.957Z,8
2022-11-27T05:12:11.843Z,8.600
2022-11-27T05:13:11.847Z,8.699
2022-11-27T05:14:12.076Z,8
2022-11-27T05:15:12.386Z,7.199
2022-11-27T05:16:11.716Z,7.5
2022-11-27T05:17:12.299Z,8.199
2022-11-27T05:18:11.558Z,7.800
2022-11-27T05:19:11.457Z,8.300
2022-11-27T05:20:12.285Z,7.599
2022-11-27T05:21:12.416Z,8.300
2022-11-27T05:22:11.608Z,8.199
2022-11-27T05:23:11.962Z,7.199
2022-11-27T05:24:12.222Z,7.800
2022-11-27T05:25:12.053Z,9.199
2022-11-27T05:26:12.145Z,8.100
2022-11-27T05:27:12.086Z,6.900
2022-11-27T05:28:11.491Z,7.5
2022-11-27T05:29:11.472Z,8.100
2022-11-27T05:30:12.617Z,8.5
2022-11-27T05:31:11.690Z,8.699
2022-11-27T05:32:11.680Z,7.599
2022-11-27T05:33:12.049Z,9.899
2022-11-27T05:34:11.965Z,7.599
2022-11-27T05:35:12.197Z,6.699
2022-11-27T05:36:11.507Z,7.699
2022-11-27T05:37:15.112Z,7.400
2022-11-27T05:38:12.203Z,7.800
2022-11-27T05:39:11.253Z,7.400
2022-11-27T05:41:11.574Z,8.199
2022-11-27T05:42:11.826Z,8
2022-11-27T05:43:11.783Z,7.5
2022-11-27T05:44:11.881Z,9.199
2022-11-27T05:45:12.459Z,8.100
2022-11-27T05:46:11.767Z,7.5
2022-11-27T05:47:12.288Z,8.800
2022-11-27T05:48:11.708Z,8.100
2022-11-27T05:49:11.705Z,8.399
2022-11-27T05:50:12.088Z,7.400
2022-11-27T05:51:11.822Z,7.900
2022-11-27T05:53:11.381Z,7.699
2022-11-27T05:54:11.648Z,8.899
2022-11-27T05:55:11.674Z,8.800
2022-11-27T05:56:11.715Z,6.900
2022-11-27T05:57:11.582Z,7.400
2022-11-27T05:58:11.607Z,7.5
2022-11-27T05:59:11.863Z,6.900
2022-11-27T06:00:12.389Z,7.5
2022-11-27T06:01:11.596Z,7.300
2022-11-27T06:02:16.465Z,6.699
2022-11-27T06:03:12.000Z,8
2022-11-27T06:04:11.365Z,6.5
2022-11-27T06:05:11.599Z,6.900
2022-11-27T06:06:12.010Z,10.30
2022-11-27T06:07:12.034Z,6.199
2022-11-27T06:08:11.378Z,8.100
2022-11-27T06:09:13.064Z,8.800
2022-11-27T06:10:11.557Z,8.300
2022-11-27T06:11:11.907Z,6.599
2022-11-27T06:12:11.794Z,6.900
2022-11-27T06:13:11.300Z,5.900
2022-11-27T06:14:11.529Z,6.5
2022-11-27T06:15:11.808Z,6.099
2022-11-27T06:16:12.182Z,6.900
2022-11-27T06:17:12.049Z,8.699
2022-11-27T06:18:12.014Z,7.5
2022-11-27T06:19:12.002Z,7.199
2022-11-27T06:20:12.392Z,8.5
2022-11-27T06:21:11.558Z,9
2022-11-27T06:22:11.670Z,8.800
2022-11-27T06:23:11.709Z,7.5
2022-11-27T06:24:11.677Z,9.399
2022-11-27T06:25:11.483Z,7.400
2022-11-27T06:26:11.911Z,7.300
2022-11-27T06:27:11.518Z,8.5
2022-11-27T06:28:11.737Z,7.099
2022-11-27T06:29:11.722Z,6.300
2022-11-27T06:30:12.188Z,7.400
2022-11-27T06:31:17.256Z,6.699
2022-11-27T06:32:12.383Z,6.800
2022-11-27T06:33:11.522Z,6.599
2022-11-27T06:34:11.742Z,8
2022-11-27T06:35:11.613Z,7.5
2022-11-27T06:36:11.438Z,8.899
2022-11-27T06:37:13.399Z,8.100
2022-11-27T06:39:11.791Z,9.300
2022-11-27T06:40:11.808Z,8.899
2022-11-27T06:41:12.101Z,8
2022-11-27T06:42:11.759Z,6.900
2022-11-27T06:43:11.629Z,7.900
2022-11-27T06:44:11.765Z,7.800
2022-11-27T06:45:12.207Z,7.900
2022-11-27T06:46:12.027Z,8
2022-11-27T06:47:12.400Z,7
2022-11-27T06:48:11.767Z,6.900
2022-11-27T06:49:11.667Z,8.399
2022-11-27T06:50:12.108Z,6.300
2022-11-27T06:51:12.070Z,6.599
2022-11-27T06:52:12.143Z,6.699
2022-11-27T06:53:12.190Z,6.900
2022-11-27T06:54:12.255Z,6.300
2022-11-27T06:55:12.597Z,6.900
2022-11-27T06:56:11.633Z,7
2022-11-27T06:57:11.468Z,6.400
2022-11-27T06:58:12.045Z,7.300
2022-11-27T06:59:11.827Z,7.199
2022-11-27T07:00:13.363Z,8.5
2022-11-27T07:01:11.911Z,5.599
2022-11-27T07:02:12.520Z,7.699
2022-11-27T07:03:11.739Z,7
2022-11-27T07:04:11.907Z,6.599
2022-11-27T07:05:12.240Z,6.400
2022-11-27T07:06:11.268Z,7.300
2022-11-27T07:07:12.517Z,6.800
2022-11-27T07:08:11.627Z,7.699
2022-11-27T07:09:12.122Z,6.199
2022-11-27T07:10:12.349Z,8.800
2022-11-27T07:11:11.501Z,7.199
2022-11-27T07:12:11.792Z,6.800
2022-11-27T07:13:11.944Z,7.900
2022-11-27T07:14:12.302Z,7.199
2022-11-27T07:15:12.342Z,5.900
2022-11-27T07:16:11.814Z,7
2022-11-27T07:17:12.301Z,6.400
2022-11-27T07:18:11.801Z,6.199
2022-11-27T07:19:11.661Z,5.699
2022-11-27T07:20:11.809Z,6.199
2022-11-27T07:21:11.899Z,6.400
2022-11-27T07:22:11.972Z,7.300
2022-11-27T07:23:12.058Z,7
2022-11-27T07:24:12.322Z,6
2022-11-27T07:25:12.340Z,7.099
2022-11-27T07:26:11.839Z,6.800
2022-11-27T07:27:11.804Z,5.800
2022-11-27T07:28:15.984Z,5.900
2022-11-27T07:29:11.965Z,7.199
2022-11-27T07:30:12.531Z,5.900
2022-11-27T07:31:11.549Z,6.5
2022-11-27T07:32:11.897Z,6.199
2022-11-27T07:33:12.044Z,5.800
2022-11-27T07:34:17.082Z,6.400
2022-11-27T07:35:12.404Z,6
2022-11-27T07:37:11.701Z,5.599
2022-11-27T07:39:11.538Z,5.800
2022-11-27T07:40:13.860Z,5.099
2022-11-27T07:41:12.373Z,7.5
2022-11-27T07:42:36.880Z,5.400
2022-11-27T07:43:12.172Z,5.099
2022-11-27T07:44:11.925Z,6.099
2022-11-27T07:45:12.103Z,5.400
2022-11-27T07:46:12.231Z,4.800
2022-11-27T07:47:11.928Z,5.599
2022-11-27T07:48:12.376Z,6.300
2022-11-27T07:49:12.552Z,6
2022-11-27T07:50:11.863Z,4.400
2022-11-27T07:51:12.326Z,4.900
2022-11-27T07:52:11.726Z,5.699
2022-11-27T07:53:11.723Z,6.300
2022-11-27T07:54:11.934Z,5.900
2022-11-27T07:55:12.259Z,5.599
2022-11-27T07:56:11.491Z,5.400
2022-11-27T07:57:11.882Z,5.099
2022-11-27T07:58:12.252Z,4.900
2022-11-27T07:59:11.378Z,6
2022-11-27T08:00:12.254Z,4.5
2022-11-27T08:01:11.998Z,4.300
2022-11-27T08:02:12.496Z,6.099
2022-11-27T08:03:11.479Z,5.400
2022-11-27T08:04:11.854Z,4.5
2022-11-27T08:05:13.200Z,5
2022-11-27T08:06:12.112Z,4.800
2022-11-27T08:07:11.501Z,5
2022-11-27T08:08:11.741Z,4.400
2022-11-27T08:09:11.752Z,4.900
2022-11-27T08:10:12.228Z,6
2022-11-27T08:11:12.238Z,4.800
2022-11-27T08:12:11.345Z,3.900
2022-11-27T08:13:11.990Z,4.599
2022-11-27T08:14:12.258Z,6.300
2022-11-27T08:15:12.858Z,5.5
2022-11-27T08:16:12.164Z,5.400
2022-11-27T08:17:12.248Z,5.599
2022-11-27T08:18:11.254Z,3.799
2022-11-27T08:19:12.183Z,5.800
2022-11-27T08:20:11.477Z,5.300
2022-11-27T08:21:11.468Z,4.599
2022-11-27T08:22:11.883Z,4.800
2022-11-27T08:23:12.135Z,5.599
2022-11-27T08:24:11.859Z,6.300
2022-11-27T08:25:11.583Z,4.599
2022-11-27T08:26:11.832Z,5.099
2022-11-27T08:28:10.899Z,4.599
2022-11-27T08:29:11.518Z,5.5
2022-11-27T08:30:12.095Z,6.199
2022-11-27T08:31:12.026Z,5.199
2022-11-27T08:32:12.460Z,5.400
2022-11-27T08:33:11.855Z,5.599
2022-11-27T08:34:11.712Z,5.900
2022-11-27T08:35:12.180Z,4.300
2022-11-27T08:36:17.673Z,4.199
2022-11-27T08:37:11.531Z,5
2022-11-27T08:38:11.764Z,5.400
2022-11-27T08:39:11.845Z,3.900
2022-11-27T08:40:12.101Z,5.099
2022-11-27T08:41:12.162Z,4.599
2022-11-27T08:43:12.277Z,5.800
2022-11-27T08:44:11.711Z,4.199
2022-11-27T08:45:31.313Z,5.800
2022-11-27T08:46:11.703Z,5.199
2022-11-27T08:47:12.029Z,4.900
2022-11-27T08:48:12.434Z,5.099
2022-11-27T08:49:11.844Z,4.699
2022-11-27T08:50:11.735Z,4.5
2022-11-27T08:51:12.223Z,3.5
2022-11-27T08:52:11.460Z,4.599
2022-11-27T08:55:34.454Z,4.900
2022-11-27T08:56:11.632Z,4.599
2022-11-27T08:57:11.482Z,3.799
2022-11-27T08:58:11.771Z,5.5
2022-11-27T09:00:12.191Z,4.599
2022-11-27T09:01:11.687Z,5.400
2022-11-27T09:02:12.174Z,4.199
2022-11-27T09:03:11.996Z,5.400
2022-11-27T09:04:12.251Z,4.199
2022-11-27T09:05:12.231Z,4.300
2022-11-27T09:06:11.294Z,4.599
2022-11-27T09:07:11.499Z,4.5
2022-11-27T09:08:11.596Z,4.699
2022-11-27T09:09:12.214Z,4.400
2022-11-27T09:10:11.815Z,6.300
2022-11-27T09:11:12.434Z,4.400
2022-11-27T09:13:11.978Z,5.099
2022-11-27T09:14:12.272Z,4.699
2022-11-27T09:15:11.065Z,4.199
2022-11-27T09:16:11.565Z,5
2022-11-27T09:17:12.289Z,4.900
2022-11-27T09:18:11.698Z,4.5
2022-11-27T09:19:11.997Z,3.799
2022-11-27T09:20:12.601Z,5.099
2022-11-27T09:21:11.670Z,4.300
2022-11-27T09:22:11.889Z,4.599
2022-11-27T09:23:14.468Z,4.5
2022-11-27T09:24:11.964Z,4.900
2022-11-27T09:25:12.494Z,4.199
2022-11-27T09:26:11.754Z,6.900
2022-11-27T09:27:12.162Z,5.800
2022-11-27T09:28:11.479Z,5.300
2022-11-27T09:29:12.127Z,6.400
2022-11-27T09:31:11.653Z,5.5
2022-11-27T09:32:12.006Z,6.099
2022-11-27T09:33:11.586Z,5.400
2022-11-27T09:34:11.674Z,4.699
2022-11-27T09:35:12.135Z,6.099
2022-11-27T09:36:11.765Z,6.900
2022-11-27T09:37:11.888Z,5.900
2022-11-27T09:38:12.140Z,6.199
2022-11-27T09:40:11.915Z,7
2022-11-27T09:42:11.507Z,7.5
2022-11-27T09:43:11.713Z,6.699
2022-11-27T09:45:12.098Z,6.599
2022-11-27T09:46:11.447Z,5.400
2022-11-27T09:47:11.383Z,6.900
2022-11-27T09:48:11.604Z,5
2022-11-27T09:49:11.855Z,5.800
2022-11-27T09:50:12.123Z,4.800
2022-11-27T09:51:12.224Z,5.400
2022-11-27T09:52:11.607Z,4.900
2022-11-27T09:53:11.748Z,4.699
2022-11-27T09:54:12.172Z,5.199
2022-11-27T09:55:12.642Z,5.400
2022-11-27T09:56:12.067Z,4.900
2022-11-27T09:57:11.929Z,4.699
2022-11-27T09:58:12.156Z,5.699
2022-11-27T09:59:12.155Z,5.800
2022-11-27T10:00:12.567Z,5.199
2022-11-27T10:01:12.239Z,4.599
2022-11-27T10:02:11.728Z,4.400
2022-11-27T10:04:11.971Z,5.699
2022-11-27T10:05:14.264Z,6.699
2022-11-27T10:06:11.943Z,5.300
2022-11-27T10:07:12.272Z,5.699
2022-11-27T10:08:11.862Z,5.199
2022-11-27T10:09:12.226Z,4.5
2022-11-27T10:11:12.225Z,4.400
2022-11-27T10:13:11.710Z,3.700
2022-11-27T10:14:12.226Z,4.199
2022-11-27T10:15:12.586Z,3.900
2022-11-27T10:16:11.664Z,4.300
2022-11-27T10:17:12.165Z,4.400
2022-11-27T10:18:11.274Z,4.699
2022-11-27T10:19:12.238Z,5.300
2022-11-27T10:20:12.677Z,4.699
2022-11-27T10:21:12.272Z,4.099
2022-11-27T10:22:13.379Z,4.900
2022-11-27T10:23:11.677Z,6.099
2022-11-27T10:24:12.045Z,6.5
2022-11-27T10:25:12.398Z,4.800
2022-11-27T10:26:11.925Z,5.099
2022-11-27T10:27:12.558Z,4.900
2022-11-27T10:28:11.933Z,5.599
2022-11-27T10:29:12.379Z,5.699
2022-11-27T10:30:12.329Z,5.099
2022-11-27T10:31:11.730Z,4.300
2022-11-27T10:32:32.821Z,3.599
2022-11-27T10:33:11.859Z,3.900
2022-11-27T10:34:12.233Z,3.700
2022-11-27T10:35:11.663Z,3
2022-11-27T10:36:11.831Z,3.700
2022-11-27T10:37:12.440Z,3.400
2022-11-27T10:38:17.054Z,4.199
2022-11-27T10:40:12.535Z,5.099
2022-11-27T10:41:34.320Z,3.099
2022-11-27T10:42:12.140Z,3.700
2022-11-27T10:43:11.561Z,4.300
2022-11-27T10:44:11.709Z,3.200
2022-11-27T10:45:12.029Z,3
2022-11-27T10:46:12.238Z,3.299
2022-11-27T10:47:12.049Z,3.799
2022-11-27T10:48:12.392Z,3.5
2022-11-27T10:49:12.659Z,3.400
2022-11-27T10:50:11.958Z,3.200
2022-11-27T10:51:12.109Z,3.799
2022-11-27T10:52:12.251Z,3.900
2022-11-27T10:53:11.454Z,2.900
2022-11-27T10:54:12.029Z,3.700
2022-11-27T10:55:12.456Z,2.700
2022-11-27T10:56:11.550Z,3.400
2022-11-27T10:57:11.686Z,5.800
2022-11-27T10:58:11.964Z,4
2022-11-27T10:59:12.281Z,4.300
2022-11-27T11:00:13.073Z,3.599
2022-11-27T11:01:12.139Z,3.299
2022-11-27T11:02:11.839Z,4.199
2022-11-27T11:03:12.121Z,4.699
2022-11-27T11:04:24.717Z,4
2022-11-27T11:05:34.577Z,3.799
2022-11-27T11:06:31.060Z,4
2022-11-27T11:07:11.703Z,4.699
2022-11-27T11:08:12.088Z,4.400
2022-11-27T11:09:12.040Z,5
2022-11-27T11:10:31.601Z,4.800
2022-11-27T11:11:11.885Z,3.900
2022-11-27T11:13:11.697Z,3.799
2022-11-27T11:14:11.613Z,2.900
2022-11-27T11:15:12.295Z,3.5
2022-11-27T11:16:14.727Z,3.700
2022-11-27T11:17:11.913Z,2.900
2022-11-27T11:18:11.384Z,3.599
2022-11-27T11:19:11.832Z,3.200
2022-11-27T11:20:12.532Z,4.199
2022-11-27T11:21:11.893Z,3.299
2022-11-27T11:22:14.616Z,3.700
2022-11-27T11:23:11.870Z,3.099
2022-11-27T11:24:12.130Z,2.799
2022-11-27T11:25:11.561Z,3.400
2022-11-27T11:26:11.597Z,2.900
2022-11-27T11:27:11.819Z,3.200
2022-11-27T11:28:12.206Z,3.400
2022-11-27T11:29:11.418Z,3.799
2022-11-27T11:30:12.319Z,4.5
2022-11-27T11:31:11.797Z,3.5
2022-11-27T11:32:12.443Z,4.900
2022-11-27T11:33:11.468Z,3.900
2022-11-27T11:34:11.841Z,4.5
2022-11-27T11:35:11.841Z,2.900
2022-11-27T11:36:11.763Z,2.700
2022-11-27T11:37:11.991Z,3.299
2022-11-27T11:38:11.663Z,3.200
2022-11-27T11:39:11.551Z,3
2022-11-27T11:40:16.030Z,3.299
2022-11-27T11:41:11.949Z,2.400
2022-11-27T11:42:12.109Z,2.5
2022-11-27T11:43:12.299Z,3.900
2022-11-27T11:44:11.520Z,3.200
2022-11-27T11:45:11.632Z,2.900
2022-11-27T11:46:11.684Z,3.599
2022-11-27T11:47:11.382Z,2.299
2022-11-27T11:48:11.897Z,3.400
2022-11-27T11:49:11.934Z,4.400
2022-11-27T11:51:11.731Z,7.599
2022-11-27T11:52:12.143Z,6.099
2022-11-27T11:53:12.237Z,6
2022-11-27T11:54:12.292Z,4.599
2022-11-27T11:55:12.734Z,3.599
2022-11-27T11:56:11.844Z,3.700
2022-11-27T11:57:12.103Z,3.299
2022-11-27T11:58:12.206Z,4.199
2022-11-27T11:59:12.499Z,3.900
2022-11-27T12:00:11.964Z,3
2022-11-27T12:01:26.324Z,3.099
2022-11-27T12:02:12.451Z,5.699
2022-11-27T12:03:11.830Z,3.099
2022-11-27T12:04:11.776Z,4.199
2022-11-27T12:05:12.518Z,4.900
2022-11-27T12:06:11.642Z,3.5
2022-11-27T12:07:11.766Z,2.900
2022-11-27T12:08:12.319Z,2.5
2022-11-27T12:09:11.696Z,3.5
2022-11-27T12:10:12.086Z,2.900
2022-11-27T12:11:11.385Z,2.099
2022-11-27T12:12:11.765Z,3.5
2022-11-27T12:13:12.236Z,3.599
2022-11-27T12:14:11.333Z,2.599
2022-11-27T12:15:12.623Z,2.700
2022-11-27T12:18:12.336Z,3.5
2022-11-27T12:19:11.601Z,4.699
2022-11-27T12:20:11.776Z,3.099
2022-11-27T12:21:12.140Z,3.400
2022-11-27T12:22:11.099Z,3.299
2022-11-27T12:23:11.204Z,3.799
2022-11-27T12:24:11.420Z,3.400
2022-11-27T12:25:11.886Z,5.099
2022-11-27T12:26:11.303Z,4.900
2022-11-27T12:27:11.633Z,3.200
2022-11-27T12:28:11.621Z,3.5
2022-11-27T12:29:11.531Z,3.200
2022-11-27T12:30:12.634Z,3.799
2022-11-27T12:31:11.995Z,2.700
2022-11-27T12:32:12.100Z,3.599
2022-11-27T12:33:12.243Z,3.700
2022-11-27T12:34:12.188Z,2.700
2022-11-27T12:35:12.349Z,3.5
2022-11-27T12:36:11.126Z,3.200
2022-11-27T12:37:14.159Z,3.400
2022-11-27T12:38:11.668Z,2.599
2022-11-27T12:39:11.677Z,3.700
2022-11-27T12:40:12.204Z,3.5
2022-11-27T12:41:12.403Z,3.400
2022-11-27T12:42:11.589Z,3.599
2022-11-27T12:43:11.900Z,2.700
2022-11-27T12:44:11.940Z,3.200
2022-11-27T12:45:12.450Z,3
2022-11-27T12:46:11.882Z,3.099
2022-11-27T12:47:12.611Z,3.299
2022-11-27T12:49:11.706Z,4.699
2022-11-27T12:50:12.474Z,8
2022-11-27T12:51:11.637Z,6
2022-11-27T12:52:12.026Z,5.5
2022-11-27T12:53:12.113Z,5.400
2022-11-27T12:54:11.378Z,6.300
2022-11-27T12:55:11.863Z,5.5
2022-11-27T12:56:11.426Z,4.5
2022-11-27T12:57:12.242Z,4.400
2022-11-27T12:58:11.825Z,5.400
2022-11-27T12:59:11.813Z,4.300
2022-11-27T13:00:12.806Z,5.900
2022-11-27T13:01:12.671Z,7.300
2022-11-27T13:02:12.101Z,7.699
2022-11-27T13:03:11.970Z,5
2022-11-27T13:05:11.840Z,4.199
2022-11-27T13:06:12.211Z,4.300
2022-11-27T13:07:11.529Z,5.300
2022-11-27T13:08:11.960Z,4
2022-11-27T13:09:12.251Z,4.400
2022-11-27T13:10:11.642Z,7.699
2022-11-27T13:11:11.454Z,5.300
2022-11-27T13:12:11.716Z,4.300
2022-11-27T13:13:12.237Z,4.900
2022-11-27T13:14:11.640Z,4
2022-11-27T13:15:20.158Z,4.699
2022-11-27T13:16:11.637Z,4.5
2022-11-27T13:17:25.984Z,3.5
2022-11-27T13:18:12.183Z,4
2022-11-27T13:19:12.326Z,2.900
2022-11-27T13:20:11.997Z,3.400
2022-11-27T13:21:11.602Z,3.799
2022-11-27T13:22:11.806Z,4.699
2022-11-27T13:23:12.066Z,4.400
2022-11-27T13:24:11.288Z,5.099
2022-11-27T13:25:11.829Z,4.199
2022-11-27T13:26:11.769Z,3
2022-11-27T13:27:11.412Z,4.699
2022-11-27T13:28:12.251Z,5.099
2022-11-27T13:29:11.618Z,4
2022-11-27T13:30:12.338Z,3.099
2022-11-27T13:31:11.470Z,4.300
2022-11-27T13:32:12.168Z,3
2022-11-27T13:33:12.335Z,4.5
2022-11-27T13:34:11.661Z,3.099
2022-11-27T13:35:12.565Z,3.599
2022-11-27T13:36:11.597Z,4
2022-11-27T13:37:12.188Z,3.700